Time;durP1;ratioP1;P1;durP2;ratioP2;P2;SDS_P1;SDS_P2;PMS_P1;PMS_P2;Temp;Humidity;BMP_temperature;BMP_pressure;BME280_temperature;BME280_humidity;BME280_pressure;Samples;Min_cycle;Max_cycle;Signal;HPM_P1;HPM_P2
2022/11/08 00:01:41;;;;;;;10.90;9.80;;;;;;;8.09;100.00;96723.28;5072468;28;20664;-56
2022/11/08 00:04:12;;;;;;;13.03;10.70;;;;;;;8.02;100.00;96725.97;5072419;28;20201;-56
2022/11/08 00:14:53;;;;;;;11.43;10.23;;;;;;;7.86;100.00;96726.44;5058662;28;20612;-54
2022/11/08 00:17:20;;;;;;;12.23;10.97;;;;;;;7.91;100.00;96730.03;5071738;28;20300;-52
2022/11/08 00:19:45;;;;;;;11.93;10.90;;;;;;;7.97;100.00;96723.16;5071927;28;20211;-56
2022/11/08 00:22:12;;;;;;;10.87;9.77;;;;;;;7.94;100.00;96720.97;5053323;28;20193;-57
2022/11/08 00:24:37;;;;;;;10.37;9.47;;;;;;;7.90;100.00;96717.19;5072109;28;20482;-55
2022/11/08 00:27:05;;;;;;;11.50;10.40;;;;;;;7.98;100.00;96709.09;5071768;28;20227;-56
2022/11/08 00:29:32;;;;;;;10.40;9.57;;;;;;;7.97;100.00;96707.50;5071725;28;20192;-53
2022/11/08 00:31:57;;;;;;;11.13;10.23;;;;;;;7.98;100.00;96710.91;5072100;28;20242;-56
2022/11/08 00:34:23;;;;;;;10.70;9.57;;;;;;;7.80;100.00;96704.59;5070554;28;20208;-54
2022/11/08 00:36:51;;;;;;;11.97;10.87;;;;;;;7.82;100.00;96704.41;5031579;28;20694;-56
2022/11/08 00:39:16;;;;;;;11.40;10.07;;;;;;;7.84;100.00;96707.59;5022678;28;20175;-55
2022/11/08 00:41:41;;;;;;;11.60;10.50;;;;;;;7.72;100.00;96704.88;5012288;28;20259;-57
2022/11/08 00:44:07;;;;;;;11.67;10.57;;;;;;;7.65;100.00;96698.88;5011998;28;20419;-57
2022/11/08 00:46:34;;;;;;;11.47;10.33;;;;;;;7.73;100.00;96698.66;5030062;28;20167;-57
2022/11/08 00:48:59;;;;;;;12.67;10.30;;;;;;;7.64;100.00;96706.91;5031996;28;20210;-56
2022/11/08 00:51:37;;;;;;;11.73;10.50;;;;;;;7.70;100.00;96696.44;5017845;28;20290;-57
2022/11/08 00:54:04;;;;;;;12.33;10.90;;;;;;;7.64;100.00;96699.09;5011095;28;20202;-56
2022/11/08 00:56:30;;;;;;;12.90;11.20;;;;;;;7.71;100.00;96694.63;5018549;28;20202;-58
2022/11/08 00:58:57;;;;;;;13.07;11.73;;;;;;;7.67;100.00;96689.06;5028957;28;20255;-58
2022/11/08 01:01:22;;;;;;;13.63;11.63;;;;;;;7.66;100.00;96692.66;5027996;28;20171;-57
2022/11/08 01:03:48;;;;;;;10.80;9.90;;;;;;;7.64;100.00;96683.44;5018153;28;20259;-56
2022/11/08 01:06:15;;;;;;;11.37;10.23;;;;;;;7.65;100.00;96682.44;5026421;28;20175;-56
2022/11/08 01:08:41;;;;;;;11.10;9.93;;;;;;;7.70;100.00;96690.44;5031587;28;20178;-56
2022/11/08 01:11:11;;;;;;;12.87;10.47;;;;;;;7.71;100.00;96686.81;5024752;28;20182;-56
2022/11/08 01:13:37;;;;;;;10.83;9.83;;;;;;;7.77;100.00;96676.34;5011955;28;20310;-58
2022/11/08 01:16:11;;;;;;;10.13;9.23;;;;;;;7.77;100.00;96673.72;5017822;28;20667;-57
2022/11/08 01:18:37;;;;;;;9.97;9.07;;;;;;;7.71;100.00;96676.38;5031330;28;20182;-54
2022/11/08 01:21:03;;;;;;;9.83;8.93;;;;;;;7.76;100.00;96681.75;5025797;28;20229;-58
2022/11/08 01:23:30;;;;;;;12.20;10.27;;;;;;;7.79;100.00;96676.94;5019940;28;20210;-57
2022/11/08 01:25:55;;;;;;;11.80;9.93;;;;;;;7.75;100.00;96672.31;5030248;28;20179;-57
2022/11/08 01:28:21;;;;;;;11.03;10.00;;;;;;;7.71;100.00;96658.91;5031412;28;20205;-53
2022/11/08 01:30:46;;;;;;;11.93;10.33;;;;;;;7.62;100.00;96662.00;5031222;28;20210;-56
2022/11/08 01:33:13;;;;;;;11.40;10.30;;;;;;;7.69;100.00;96660.94;5024192;28;20277;-57
2022/11/08 01:35:39;;;;;;;10.93;9.83;;;;;;;7.56;100.00;96663.66;5039825;28;20233;-57
2022/11/08 01:38:05;;;;;;;10.57;9.47;;;;;;;7.62;100.00;96662.81;5074924;28;20257;-56
2022/11/08 01:40:31;;;;;;;11.47;10.10;;;;;;;7.61;100.00;96669.03;5075191;28;20652;-57
2022/11/08 01:42:57;;;;;;;10.23;9.33;;;;;;;7.62;100.00;96662.00;5074562;28;20209;-58
2022/11/08 01:46:06;;;;;;;9.80;9.00;;;;;;;7.66;100.00;96658.75;5074414;28;20272;-58
2022/11/08 01:48:32;;;;;;;8.67;7.87;;;;;;;7.72;100.00;96651.91;5074741;28;20267;-54
2022/11/08 01:50:58;;;;;;;9.73;8.73;;;;;;;7.77;100.00;96647.63;5074988;28;20680;-56
2022/11/08 01:53:26;;;;;;;9.10;8.07;;;;;;;7.77;100.00;96642.44;5074961;28;20212;-57
2022/11/08 01:55:52;;;;;;;8.07;7.47;;;;;;;7.85;100.00;96639.56;5074666;28;20252;-57
2022/11/08 01:58:23;;;;;;;10.07;8.10;;;;;;;7.85;100.00;96636.16;5075414;28;20181;-56
2022/11/08 02:00:48;;;;;;;8.77;7.47;;;;;;;7.91;100.00;96630.84;5074983;28;20178;-57
2022/11/08 02:03:18;;;;;;;8.87;7.90;;;;;;;7.88;100.00;96625.28;5075317;28;20209;-52
2022/11/08 02:05:43;;;;;;;7.87;7.10;;;;;;;7.89;100.00;96619.84;5075005;28;20169;-57
2022/11/08 02:08:13;;;;;;;8.87;7.70;;;;;;;7.90;100.00;96608.41;5074096;28;20206;-57
2022/11/08 02:10:44;;;;;;;8.73;7.77;;;;;;;7.81;100.00;96619.31;5074289;28;20200;-56
2022/11/08 02:13:21;;;;;;;8.90;8.10;;;;;;;7.77;100.00;96608.50;5073520;28;20212;-56
2022/11/08 02:15:46;;;;;;;9.47;8.50;;;;;;;7.84;100.00;96608.47;5073773;28;20274;-54
2022/11/08 02:18:14;;;;;;;9.10;8.20;;;;;;;7.84;100.00;96608.47;5073976;28;20284;-53
2022/11/08 02:21:03;;;;;;;9.10;7.87;;;;;;;7.80;100.00;96612.53;5074099;28;20219;-58
2022/11/08 02:23:41;;;;;;;9.93;8.87;;;;;;;7.67;100.00;96602.97;5073553;28;20212;-54
2022/11/08 02:26:07;;;;;;;8.33;7.60;;;;;;;7.67;100.00;96602.16;5074146;28;20185;-57
2022/11/08 02:28:40;;;;;;;8.50;7.80;;;;;;;7.71;100.00;96603.34;5074275;28;20177;-55
2022/11/08 02:31:09;;;;;;;9.57;8.57;;;;;;;7.61;100.00;96596.00;5074124;28;20231;-55
2022/11/08 02:33:35;;;;;;;8.67;7.83;;;;;;;7.55;100.00;96590.81;5073035;28;20205;-56
2022/11/08 02:36:01;;;;;;;8.93;8.00;;;;;;;7.52;100.00;96590.22;5046752;28;20308;-58
2022/11/08 02:38:26;;;;;;;10.50;9.50;;;;;;;7.46;100.00;96583.28;5032559;28;20183;-58
2022/11/08 02:40:54;;;;;;;10.60;9.00;;;;;;;7.38;100.00;96574.91;5034150;28;20171;-56
2022/11/08 02:43:20;;;;;;;11.80;10.60;;;;;;;7.29;100.00;96576.97;5021037;28;20668;-57
2022/11/08 02:45:47;;;;;;;13.73;12.07;;;;;;;7.13;100.00;96581.91;5029510;28;20523;-54
2022/11/08 02:48:13;;;;;;;13.23;11.87;;;;;;;7.21;100.00;96576.41;5014391;28;20198;-56
2022/11/08 02:50:39;;;;;;;12.70;11.47;;;;;;;7.06;100.00;96577.50;5014245;28;20219;-56
2022/11/08 02:53:04;;;;;;;12.83;11.53;;;;;;;6.99;100.00;96579.34;5013994;28;20291;-57
2022/11/08 02:55:31;;;;;;;13.13;11.73;;;;;;;6.99;100.00;96574.13;5013484;28;20570;-55
2022/11/08 02:57:57;;;;;;;14.73;13.27;;;;;;;6.96;100.00;96571.97;5014228;28;20274;-55
2022/11/08 03:00:22;;;;;;;14.53;13.23;;;;;;;7.03;100.00;96574.50;5029432;28;20278;-53
2022/11/08 03:02:51;;;;;;;14.60;13.03;;;;;;;7.02;100.00;96567.72;5014180;28;20318;-56
2022/11/08 03:05:17;;;;;;;15.33;13.73;;;;;;;7.03;100.00;96564.09;5025056;28;20206;-56
2022/11/08 03:07:43;;;;;;;15.33;12.57;;;;;;;6.94;100.00;96560.94;5033299;28;20689;-55
2022/11/08 03:10:10;;;;;;;14.13;12.77;;;;;;;6.89;100.00;96560.78;5033253;28;20281;-56
2022/11/08 03:12:35;;;;;;;16.50;14.03;;;;;;;6.87;100.00;96562.78;5015709;28;20246;-56
2022/11/08 03:15:01;;;;;;;15.07;13.53;;;;;;;6.95;100.00;96566.97;5023961;28;20265;-57
2022/11/08 03:17:26;;;;;;;15.37;13.30;;;;;;;6.82;100.00;96564.41;5013272;28;20694;-55
2022/11/08 03:19:52;;;;;;;15.87;13.10;;;;;;;6.83;100.00;96561.59;5023708;28;20221;-58
2022/11/08 03:22:18;;;;;;;14.73;13.23;;;;;;;6.88;100.00;96563.56;5033158;28;20232;-58
2022/11/08 03:24:43;;;;;;;14.03;12.60;;;;;;;6.73;100.00;96556.03;5021579;28;20202;-55
2022/11/08 03:27:09;;;;;;;14.40;13.00;;;;;;;6.72;100.00;96562.25;5028587;28;20185;-58
2022/11/08 03:29:34;;;;;;;13.40;12.13;;;;;;;6.69;100.00;96558.25;5032795;28;20660;-56
2022/11/08 03:32:00;;;;;;;13.93;12.53;;;;;;;6.61;100.00;96568.91;5031337;28;20784;-57
2022/11/08 03:34:25;;;;;;;13.20;11.80;;;;;;;6.61;100.00;96568.91;5030631;28;20210;-58
2022/11/08 03:36:50;;;;;;;12.57;11.37;;;;;;;6.59;100.00;96572.72;5068788;28;20233;-55
2022/11/08 03:39:16;;;;;;;12.27;11.13;;;;;;;6.74;100.00;96565.47;5072608;28;20256;-57
2022/11/08 03:41:41;;;;;;;14.13;12.00;;;;;;;6.74;100.00;96557.66;5072883;28;20224;-57
2022/11/08 03:44:07;;;;;;;12.60;11.40;;;;;;;6.76;100.00;96566.03;5072644;28;20205;-55
2022/11/08 03:46:32;;;;;;;12.60;11.30;;;;;;;6.75;100.00;96561.81;5072500;28;20543;-57
2022/11/08 03:48:57;;;;;;;12.03;10.93;;;;;;;6.66;100.00;96561.28;5072811;28;20185;-55
2022/11/08 03:51:23;;;;;;;12.27;11.13;;;;;;;6.78;100.00;96569.25;5072407;28;20656;-58
2022/11/08 03:53:48;;;;;;;10.97;9.97;;;;;;;6.85;100.00;96562.19;5072342;28;20213;-54
2022/11/08 03:56:13;;;;;;;11.13;9.20;;;;;;;6.88;100.00;96561.78;5071565;28;20205;-58
2022/11/08 03:58:39;;;;;;;9.17;8.47;;;;;;;6.95;100.00;96551.31;5072017;28;20173;-56
2022/11/08 04:01:05;;;;;;;10.90;9.80;;;;;;;6.94;100.00;96557.53;5072506;28;20173;-56
2022/11/08 04:03:31;;;;;;;10.43;8.67;;;;;;;6.89;100.00;96552.97;5072298;28;20216;-55
2022/11/08 04:05:59;;;;;;;9.63;8.70;;;;;;;6.86;100.00;96553.34;5072648;28;20588;-56
2022/11/08 04:08:26;;;;;;;9.13;8.23;;;;;;;6.93;100.00;96554.13;5072426;28;20181;-57
2022/11/08 04:15:13;;;;;;;9.37;8.60;;;;;;;6.99;100.00;96555.09;5072200;28;20173;-56
2022/11/08 04:16:31;;;;;;;9.00;7.57;;;;;;;7.06;100.00;96559.28;5071486;28;20711;-55
2022/11/08 04:21:50;;;;;;;10.37;9.33;;;;;;;7.08;100.00;96559.03;5072019;28;20184;-55
2022/11/08 04:24:16;;;;;;;8.70;7.83;;;;;;;7.02;100.00;96545.03;5071558;28;20618;-56
2022/11/08 04:26:41;;;;;;;8.60;7.90;;;;;;;7.13;100.00;96546.22;5071551;28;20185;-57
2022/11/08 04:29:08;;;;;;;9.60;8.90;;;;;;;7.17;100.00;96549.97;5071710;28;20188;-56
2022/11/08 04:31:33;;;;;;;8.07;7.37;;;;;;;7.15;100.00;96546.78;5070762;28;20196;-53
2022/11/08 04:33:59;;;;;;;8.13;7.50;;;;;;;7.17;100.00;96538.75;5065544;28;20209;-57
2022/11/08 04:36:25;;;;;;;9.00;6.33;;;;;;;7.26;100.00;96543.50;5069316;28;20719;-54
2022/11/08 04:38:51;;;;;;;6.93;6.43;;;;;;;7.31;100.00;96535.03;5072086;28;20573;-57
2022/11/08 04:41:21;;;;;;;8.37;7.50;;;;;;;7.35;100.00;96534.44;5071698;28;20520;-53
2022/11/08 04:43:47;;;;;;;9.10;8.50;;;;;;;7.44;100.00;96532.34;5071516;28;20205;-52
2022/11/08 04:46:18;;;;;;;9.23;8.43;;;;;;;7.43;100.00;96528.94;5071765;28;20174;-55
2022/11/08 04:48:45;;;;;;;12.33;11.53;;;;;;;7.40;100.00;96520.75;5071563;28;20181;-53
2022/11/08 04:51:14;;;;;;;13.70;8.03;;;;;;;7.41;100.00;96522.34;5071487;28;20637;-56
2022/11/08 04:53:40;;;;;;;9.60;8.83;;;;;;;7.37;100.00;96515.94;5071903;28;20209;-56
2022/11/08 04:56:09;;;;;;;8.67;8.10;;;;;;;7.43;100.00;96513.28;5071438;28;20239;-54
2022/11/08 04:58:36;;;;;;;6.83;6.17;;;;;;;7.41;100.00;96506.69;5055936;28;20566;-57
2022/11/08 05:01:03;;;;;;;5.57;5.07;;;;;;;7.43;100.00;96508.06;5071537;28;20173;-57
2022/11/08 05:03:30;;;;;;;6.23;5.73;;;;;;;7.42;100.00;96506.47;5071629;28;20268;-57
2022/11/08 05:06:00;;;;;;;6.97;6.47;;;;;;;7.38;100.00;96513.13;5071582;28;20189;-57
2022/11/08 05:08:25;;;;;;;7.57;6.73;;;;;;;7.42;100.00;96505.66;5072868;28;20608;-58
2022/11/08 05:10:50;;;;;;;7.33;6.73;;;;;;;7.45;100.00;96500.84;5075670;28;20173;-56
2022/11/08 05:13:16;;;;;;;7.13;6.50;;;;;;;7.44;100.00;96498.44;5071082;28;20204;-54
2022/11/08 05:15:41;;;;;;;7.67;7.07;;;;;;;7.37;100.00;96495.88;5075118;28;20197;-56
2022/11/08 05:18:07;;;;;;;6.20;5.80;;;;;;;7.43;100.00;96495.03;5075111;28;20571;-54
2022/11/08 05:23:26;;;;;;;5.70;5.20;;;;;;;7.34;100.00;96498.13;5075244;28;20235;-53
2022/11/08 05:25:53;;;;;;;6.20;5.70;;;;;;;7.35;100.00;96492.72;5075109;28;20737;-57
2022/11/08 05:28:19;;;;;;;5.97;5.47;;;;;;;7.33;100.00;96493.91;5073619;28;20625;-55
2022/11/08 05:30:51;;;;;;;8.60;7.80;;;;;;;7.33;100.00;96497.31;5075450;28;20173;-57
2022/11/08 05:33:16;;;;;;;8.20;7.57;;;;;;;7.39;100.00;96504.31;5074057;28;20585;-51
2022/11/08 05:35:42;;;;;;;7.90;7.30;;;;;;;7.38;100.00;96497.50;5072738;28;20237;-55
2022/11/08 05:38:07;;;;;;;7.57;6.97;;;;;;;7.40;100.00;96505.91;5074720;28;20181;-55
2022/11/08 05:40:33;;;;;;;7.53;6.93;;;;;;;7.43;100.00;96499.44;5074674;28;20181;-58
2022/11/08 05:43:00;;;;;;;8.53;7.17;;;;;;;7.44;100.00;96498.44;5074762;28;20212;-57
2022/11/08 05:45:25;;;;;;;8.00;7.20;;;;;;;7.40;100.00;96499.88;5074676;28;20208;-57
2022/11/08 05:47:51;;;;;;;7.53;7.00;;;;;;;7.41;100.00;96496.28;5070566;28;20213;-56
2022/11/08 05:50:16;;;;;;;7.63;7.10;;;;;;;7.37;100.00;96495.09;5075004;28;20169;-55
2022/11/08 05:52:41;;;;;;;7.93;7.33;;;;;;;7.22;100.00;96495.41;5074575;28;20216;-57
2022/11/08 05:55:07;;;;;;;8.20;7.40;;;;;;;7.25;100.00;96497.56;5074749;28;20225;-53
2022/11/08 05:57:32;;;;;;;7.67;6.97;;;;;;;7.20;100.00;96499.22;5074800;28;20213;-53
2022/11/08 05:59:59;;;;;;;8.07;7.30;;;;;;;7.26;100.00;96490.56;5074474;28;20190;-54
2022/11/08 06:02:24;;;;;;;7.17;6.67;;;;;;;7.19;100.00;96492.44;5074222;28;20205;-54
2022/11/08 06:04:50;;;;;;;7.37;6.73;;;;;;;7.17;100.00;96495.25;5074727;28;20209;-58
2022/11/08 06:07:15;;;;;;;7.97;7.30;;;;;;;7.19;100.00;96498.44;5074359;28;20170;-60
2022/11/08 06:09:41;;;;;;;7.63;7.03;;;;;;;7.25;100.00;96491.56;5074368;28;20165;-57
2022/11/08 06:12:06;;;;;;;8.07;7.47;;;;;;;7.20;100.00;96489.59;5074229;28;20177;-58
2022/11/08 06:14:32;;;;;;;9.03;8.43;;;;;;;7.21;100.00;96495.63;5073863;28;20192;-56
2022/11/08 06:16:57;;;;;;;8.60;8.00;;;;;;;7.22;100.00;96492.81;5073259;28;20288;-55
2022/11/08 06:19:23;;;;;;;9.03;8.13;;;;;;;7.27;100.00;96495.56;5073992;28;20197;-53
2022/11/08 06:21:48;;;;;;;8.30;7.70;;;;;;;7.30;100.00;96489.91;5073644;28;20181;-58
2022/11/08 06:24:16;;;;;;;8.73;8.13;;;;;;;7.30;100.00;96489.16;5073743;28;20225;-57
2022/11/08 06:26:41;;;;;;;9.83;9.13;;;;;;;7.26;100.00;96491.38;5073728;28;20646;-56
2022/11/08 06:29:07;;;;;;;9.10;8.23;;;;;;;7.37;100.00;96490.66;5074057;28;20208;-55
2022/11/08 06:31:32;;;;;;;8.33;7.73;;;;;;;7.38;100.00;96487.06;5072890;28;20279;-56
2022/11/08 06:33:58;;;;;;;7.87;7.23;;;;;;;7.40;100.00;96492.06;5073790;28;20296;-55
2022/11/08 06:36:24;;;;;;;6.83;5.90;;;;;;;7.49;100.00;96491.56;5071708;28;20225;-56
2022/11/08 06:38:53;;;;;;;7.50;6.93;;;;;;;7.53;100.00;96484.09;5073689;28;20177;-58
2022/11/08 06:41:19;;;;;;;5.87;5.27;;;;;;;7.67;100.00;96495.22;5074162;28;20169;-55
2022/11/08 06:43:44;;;;;;;6.53;5.67;;;;;;;7.71;100.00;96499.81;5073914;28;20280;-57
2022/11/08 06:46:10;;;;;;;5.20;4.33;;;;;;;7.89;100.00;96497.22;5073383;28;20256;-58
2022/11/08 06:48:35;;;;;;;4.60;4.20;;;;;;;8.00;100.00;96490.47;5074271;28;20197;-56
2022/11/08 06:51:01;;;;;;;54.20;49.87;;;;;;;7.97;100.00;96492.75;5073908;28;20621;-63
2022/11/08 06:53:26;;;;;;;8.27;7.67;;;;;;;8.12;100.00;96503.59;5073661;28;20197;-61
2022/11/08 06:55:53;;;;;;;8.37;7.43;;;;;;;8.25;100.00;96500.81;5073549;28;20197;-57
2022/11/08 06:58:19;;;;;;;7.10;6.57;;;;;;;8.32;100.00;96488.53;5055583;28;20212;-53
2022/11/08 07:00:44;;;;;;;7.03;6.47;;;;;;;8.38;100.00;96494.69;5073022;28;20208;-55
2022/11/08 07:03:17;;;;;;;6.80;6.13;;;;;;;8.37;100.00;96482.66;5073307;28;20243;-56
2022/11/08 07:05:42;;;;;;;7.83;7.23;;;;;;;8.27;100.00;96499.59;5073125;28;20169;-57
2022/11/08 07:08:07;;;;;;;7.30;6.70;;;;;;;8.35;100.00;96488.13;5073456;28;20184;-57
2022/11/08 07:10:33;;;;;;;7.50;7.00;;;;;;;8.26;100.00;96498.00;5061200;28;20649;-56
2022/11/08 07:12:59;;;;;;;8.77;7.97;;;;;;;8.28;100.00;96488.16;5071477;28;20694;-61
2022/11/08 07:15:24;;;;;;;14.10;8.30;;;;;;;8.41;100.00;96491.66;5072511;28;20219;-57
2022/11/08 07:17:49;;;;;;;8.33;7.53;;;;;;;8.65;100.00;96495.94;5072428;28;20185;-58
2022/11/08 07:20:15;;;;;;;6.20;5.70;;;;;;;8.65;100.00;96501.97;5073226;28;20205;-52
2022/11/08 07:22:40;;;;;;;5.30;4.80;;;;;;;8.79;100.00;96509.66;5073664;28;20242;-57
2022/11/08 07:25:06;;;;;;;6.73;6.13;;;;;;;8.69;100.00;96508.34;5073968;28;20242;-51
2022/11/08 07:27:32;;;;;;;8.23;7.53;;;;;;;8.72;100.00;96507.13;5073317;28;20173;-57
2022/11/08 07:29:57;;;;;;;8.80;8.10;;;;;;;8.88;100.00;96513.53;5073378;28;20185;-54
2022/11/08 07:32:22;;;;;;;9.93;9.17;;;;;;;8.80;100.00;96514.66;5071952;28;20185;-52
2022/11/08 07:34:48;;;;;;;12.73;11.93;;;;;;;8.96;100.00;96513.22;5068728;28;20311;-65
2022/11/08 07:37:13;;;;;;;6.57;5.70;;;;;;;10.59;100.00;96513.25;5068022;28;20210;-61
2022/11/08 07:39:38;;;;;;;9.67;8.90;;;;;;;11.06;100.00;96509.41;5071729;28;20613;-62
2022/11/08 07:42:04;;;;;;;6.83;6.23;;;;;;;10.10;98.60;96518.00;5072074;28;20227;-56
2022/11/08 07:44:29;;;;;;;12.20;11.07;;;;;;;9.97;97.44;96515.63;5072253;28;20205;-57
2022/11/08 07:46:55;;;;;;;7.87;7.27;;;;;;;9.58;98.38;96522.34;5072203;28;20169;-59
2022/11/08 07:49:20;;;;;;;19.30;18.20;;;;;;;9.50;99.15;96513.00;5071137;28;20177;-58
2022/11/08 07:51:45;;;;;;;6.07;5.47;;;;;;;9.33;100.00;96513.88;5070441;28;20184;-56
2022/11/08 07:54:11;;;;;;;5.17;4.73;;;;;;;9.12;100.00;96502.94;5071701;28;20259;-59
2022/11/08 07:56:36;;;;;;;5.23;4.77;;;;;;;8.98;100.00;96485.03;5071594;28;20190;-58
2022/11/08 07:59:02;;;;;;;7.40;5.33;;;;;;;9.03;100.00;96478.13;5064849;28;20242;-58
2022/11/08 08:01:28;;;;;;;9.07;8.23;;;;;;;9.10;100.00;96455.28;5060298;28;20254;-59
2022/11/08 08:03:53;;;;;;;8.97;8.27;;;;;;;9.25;100.00;96461.91;5071640;28;20201;-59
2022/11/08 08:06:19;;;;;;;7.47;6.87;;;;;;;9.22;100.00;96459.75;5071829;28;20211;-58
2022/11/08 08:08:44;;;;;;;6.60;5.23;;;;;;;9.44;100.00;96451.13;5069002;28;20173;-56
2022/11/08 08:11:10;;;;;;;7.23;6.30;;;;;;;9.51;99.13;96454.44;5065568;28;20633;-54
2022/11/08 08:13:35;;;;;;;9.37;8.53;;;;;;;9.62;98.88;96458.06;5071730;28;20205;-59
2022/11/08 08:16:01;;;;;;;7.87;7.20;;;;;;;9.90;98.06;96473.06;5071514;28;20234;-58
2022/11/08 08:18:27;;;;;;;8.77;6.93;;;;;;;9.93;97.29;96464.75;5070980;28;20200;-58
2022/11/08 08:20:53;;;;;;;8.07;6.00;;;;;;;10.11;96.08;96475.06;5069953;28;20177;-57
2022/11/08 08:23:18;;;;;;;19.80;18.60;;;;;;;10.19;95.09;96484.44;5071308;28;20696;-57
2022/11/08 08:25:44;;;;;;;10.93;9.97;;;;;;;10.27;94.16;96487.47;5071216;28;20251;-57
2022/11/08 08:28:09;;;;;;;9.63;8.83;;;;;;;10.24;93.67;96493.19;5070590;28;20224;-58
2022/11/08 08:30:37;;;;;;;10.00;9.10;;;;;;;10.35;94.25;96502.06;5071667;28;20165;-58
2022/11/08 08:33:07;;;;;;;9.53;8.83;;;;;;;10.33;93.60;96507.50;5071340;28;20207;-59
2022/11/08 08:35:36;;;;;;;8.83;8.23;;;;;;;10.23;94.12;96499.44;5077732;28;20224;-56
2022/11/08 08:38:03;;;;;;;8.43;7.80;;;;;;;10.34;94.41;96508.31;5072073;28;20560;-59
2022/11/08 08:40:29;;;;;;;7.40;6.80;;;;;;;10.63;93.83;96494.22;5071785;28;20639;-59
2022/11/08 08:42:56;;;;;;;11.93;11.23;;;;;;;10.61;91.70;96491.03;5071424;28;20240;-59
2022/11/08 08:45:22;;;;;;;8.77;7.60;;;;;;;10.80;90.46;96491.66;5071771;28;20165;-66
2022/11/08 08:47:52;;;;;;;11.90;10.90;;;;;;;10.88;89.90;96495.69;5071933;28;20154;-66
2022/11/08 08:50:18;;;;;;;34.93;32.93;;;;;;;11.16;88.07;96493.84;5091842;28;20171;-66
2022/11/08 08:52:43;;;;;;;12.10;11.30;;;;;;;11.12;87.70;96484.06;5091159;28;20208;-65
2022/11/08 08:55:08;;;;;;;6.77;6.30;;;;;;;11.00;88.13;96484.13;5091835;28;20242;-66
2022/11/08 08:57:34;;;;;;;12.43;11.63;;;;;;;10.92;88.10;96491.59;5091640;28;20189;-66
2022/11/08 08:59:59;;;;;;;12.27;11.53;;;;;;;10.98;87.43;96501.16;5092032;28;20218;-67
2022/11/08 09:02:25;;;;;;;8.73;8.17;;;;;;;11.03;87.70;96494.16;5091195;28;20229;-63
2022/11/08 09:04:50;;;;;;;7.60;7.03;;;;;;;10.86;89.66;96497.78;5090563;28;20168;-64
2022/11/08 09:07:15;;;;;;;22.67;21.37;;;;;;;10.98;90.66;96498.53;5090699;28;20188;-61
2022/11/08 09:09:41;;;;;;;19.13;17.77;;;;;;;11.05;90.42;96496.53;5091372;28;20168;-60
2022/11/08 09:12:06;;;;;;;15.90;14.67;;;;;;;11.15;89.46;96505.34;5090831;28;20184;-61
2022/11/08 09:14:32;;;;;;;10.57;9.87;;;;;;;11.14;89.49;96516.09;5091337;28;20200;-59
2022/11/08 09:16:57;;;;;;;10.47;9.70;;;;;;;10.94;89.06;96508.66;5091107;28;20205;-62
2022/11/08 09:19:23;;;;;;;8.73;7.90;;;;;;;11.02;88.96;96516.16;5091556;28;20675;-64
2022/11/08 09:21:49;;;;;;;14.53;13.60;;;;;;;11.11;89.41;96519.19;5091426;28;20172;-60
2022/11/08 09:24:16;;;;;;;10.37;9.70;;;;;;;11.30;89.66;96520.56;5090888;28;20230;-58
2022/11/08 09:26:41;;;;;;;7.97;7.40;;;;;;;11.43;89.18;96522.88;5090913;28;20177;-58
2022/11/08 09:29:06;;;;;;;9.67;9.07;;;;;;;11.61;88.68;96527.91;5091401;28;20188;-58
2022/11/08 09:31:32;;;;;;;14.27;13.37;;;;;;;11.62;85.57;96537.38;5089936;28;20181;-61
2022/11/08 09:33:57;;;;;;;33.30;31.40;;;;;;;11.73;84.89;96532.28;5091159;28;20239;-58
2022/11/08 09:36:23;;;;;;;19.73;18.43;;;;;;;11.79;83.49;96533.97;5073468;28;20252;-59
2022/11/08 09:38:48;;;;;;;18.23;17.07;;;;;;;11.96;83.51;96532.91;5070474;28;20209;-65
2022/11/08 09:41:26;;;;;;;10.93;10.27;;;;;;;12.10;82.78;96528.09;5064758;28;20166;-65
2022/11/08 09:43:58;;;;;;;10.17;9.57;;;;;;;12.20;81.12;96524.84;5070638;28;20204;-60
2022/11/08 09:46:42;;;;;;;10.03;9.50;;;;;;;12.01;83.48;96530.38;5070773;28;20223;-60
2022/11/08 09:49:16;;;;;;;10.93;10.03;;;;;;;12.30;82.90;96530.22;5070743;28;20177;-60
2022/11/08 09:51:41;;;;;;;10.03;9.27;;;;;;;12.27;82.56;96528.84;5070752;28;20182;-66
2022/11/08 09:54:16;;;;;;;12.13;11.37;;;;;;;12.20;82.78;96530.09;5070703;28;20201;-60
2022/11/08 09:56:43;;;;;;;9.13;8.30;;;;;;;12.37;83.63;96533.47;5073522;28;20197;-60
2022/11/08 09:59:17;;;;;;;17.13;16.20;;;;;;;12.47;84.37;96531.78;5073331;28;20723;-61
2022/11/08 10:01:43;;;;;;;9.23;8.63;;;;;;;12.58;83.28;96537.94;5074523;28;20169;-60
2022/11/08 10:04:15;;;;;;;10.40;9.63;;;;;;;12.62;82.42;96536.41;5074143;28;20201;-65
2022/11/08 10:06:46;;;;;;;17.10;15.80;;;;;;;12.87;80.02;96533.28;5073286;28;20201;-65
2022/11/08 10:09:14;;;;;;;17.20;16.17;;;;;;;13.10;79.71;96532.16;5057432;28;20220;-65
2022/11/08 10:11:56;;;;;;;59.33;56.20;;;;;;;13.15;78.44;96530.41;5073980;28;20201;-66
2022/11/08 10:14:40;;;;;;;66.10;62.50;;;;;;;13.21;78.18;96533.88;5073445;28;20278;-66
2022/11/08 10:17:14;;;;;;;85.33;80.67;;;;;;;13.11;78.38;96525.88;5062635;28;20209;-65
2022/11/08 10:19:58;;;;;;;101.50;95.97;;;;;;;12.90;79.56;96527.50;5074279;28;20637;-60
2022/11/08 10:22:29;;;;;;;59.57;56.43;;;;;;;13.04;78.27;96517.41;5073817;28;20188;-61
2022/11/08 10:25:02;;;;;;;125.13;118.37;;;;;;;13.26;78.54;96528.69;5073923;28;20280;-60
2022/11/08 10:27:39;;;;;;;104.47;98.90;;;;;;;13.20;78.42;96519.16;5073812;28;20208;-60
2022/11/08 10:30:19;;;;;;;57.50;54.27;;;;;;;13.19;77.75;96522.84;5073760;28;20177;-60
2022/11/08 10:32:49;;;;;;;73.07;69.10;;;;;;;13.18;77.96;96526.50;5067761;28;20213;-59
2022/11/08 10:35:40;;;;;;;47.73;45.23;;;;;;;13.24;77.77;96521.03;5071748;28;20233;-60
2022/11/08 10:38:23;;;;;;;43.83;41.33;;;;;;;13.36;77.28;96518.25;5074042;28;20596;-61
2022/11/08 10:40:59;;;;;;;65.60;62.03;;;;;;;13.16;78.43;96518.06;5059634;28;20169;-59
2022/11/08 10:43:34;;;;;;;69.70;65.93;;;;;;;13.19;78.89;96526.25;5072885;28;20612;-61
2022/11/08 10:45:59;;;;;;;100.63;95.20;;;;;;;13.20;79.45;96516.53;5073939;28;20173;-60
2022/11/08 10:48:25;;;;;;;163.73;155.23;;;;;;;13.10;79.88;96506.66;5073383;28;20174;-61
2022/11/08 10:50:52;;;;;;;77.67;73.40;;;;;;;13.19;80.76;96517.56;5073753;28;20177;-61
2022/11/08 10:53:23;;;;;;;35.77;33.73;;;;;;;13.24;80.88;96502.63;5073234;28;20289;-60
2022/11/08 10:55:58;;;;;;;97.87;92.33;;;;;;;13.20;80.05;96503.38;5073419;28;20613;-61
2022/11/08 10:58:27;;;;;;;101.83;96.37;;;;;;;13.20;78.61;96498.91;5074079;28;20184;-59
2022/11/08 11:01:03;;;;;;;153.87;145.80;;;;;;;13.26;79.70;96505.00;5073764;28;20458;-63
2022/11/08 11:03:29;;;;;;;141.97;134.07;;;;;;;13.51;79.11;96504.41;5073427;28;20204;-59
2022/11/08 11:06:06;;;;;;;128.67;121.30;;;;;;;13.37;79.04;96501.41;5063273;28;20196;-60
2022/11/08 11:08:32;;;;;;;37.67;35.47;;;;;;;13.26;79.10;96502.38;5073184;28;20490;-58
2022/11/08 11:11:37;;;;;;;23.77;22.33;;;;;;;13.43;77.66;96499.63;5072881;28;20181;-59
2022/11/08 11:14:17;;;;;;;89.87;82.27;;;;;;;13.71;76.76;96500.06;5069990;28;20213;-59
2022/11/08 11:17:13;;;;;;;626.77;261.27;;;;;;;13.65;75.61;96490.56;5072529;28;20225;-59
2022/11/08 11:19:43;;;;;;;21.40;20.07;;;;;;;13.86;74.08;96494.13;5072875;28;20235;-57
2022/11/08 11:22:11;;;;;;;229.30;205.17;;;;;;;13.95;74.45;96504.97;5073384;28;20189;-59
2022/11/08 11:24:46;;;;;;;35.60;33.40;;;;;;;14.08;73.48;96491.38;5073572;28;20204;-59
2022/11/08 11:27:29;;;;;;;44.00;40.97;;;;;;;14.23;75.29;96488.78;5072967;28;20238;-65
2022/11/08 11:30:27;;;;;;;55.20;51.60;;;;;;;14.24;75.75;96493.03;5072037;28;20181;-65
2022/11/08 11:32:55;;;;;;;65.20;61.70;;;;;;;14.25;73.96;96485.91;5071948;28;20197;-66
2022/11/08 11:35:23;;;;;;;124.63;117.80;;;;;;;14.29;73.68;96484.34;5066320;28;20590;-65
2022/11/08 11:37:49;;;;;;;143.93;136.47;;;;;;;14.24;73.75;96481.69;5073838;28;20201;-65
2022/11/08 11:40:48;;;;;;;88.27;83.57;;;;;;;14.26;74.77;96472.47;5078174;28;20180;-66
2022/11/08 11:43:33;;;;;;;1801.83;590.57;;;;;;;14.19;76.78;96466.63;5068325;28;20232;-60
2022/11/08 11:46:12;;;;;;;393.63;210.83;;;;;;;14.25;76.73;96468.25;5077277;28;20522;-60